Time;durP1;ratioP1;P1;durP2;ratioP2;P2;SDS_P1;SDS_P2;PMS_P1;PMS_P2;Temp;Humidity;BMP_temperature;BMP_pressure;BME280_temperature;BME280_humidity;BME280_pressure;Samples;Min_cycle;Max_cycle;Signal;HPM_P1;HPM_P2
2021/11/28 00:00:04;;;;;;;;;;;4.20;99.90;4.70;97704.00;;;;345496;28;92011;-88
2021/11/28 00:00:18;;;;;;;;;;;4.20;99.90;4.70;97706.00;;;;344087;28;91508;-88
2021/11/28 00:00:32;;;;;;;;;;;4.20;99.90;4.70;97705.00;;;;344252;28;92124;-88
2021/11/28 00:00:45;;;;;;;;;;;4.20;99.90;4.70;97707.00;;;;345805;28;94554;-88
2021/11/28 00:00:57;;;;;;;;;;;4.20;99.90;4.70;97712.00;;;;345523;28;90156;-87
2021/11/28 00:01:10;;;;;;;;;;;4.20;99.90;4.70;97709.00;;;;342365;28;93574;-89
2021/11/28 00:01:22;;;;;;;;;;;4.20;99.90;4.70;97714.00;;;;343952;28;92057;-88
2021/11/28 00:01:34;;;;;;;;;;;4.20;99.90;4.70;97715.00;;;;343057;28;94741;-88
2021/11/28 00:01:52;;;;;;;;;;;4.20;99.90;4.70;97711.00;;;;344234;28;91102;-87
2021/11/28 00:02:05;;;;;;;;;;;4.20;99.90;4.80;97710.00;;;;344480;28;95682;-88
2021/11/28 00:02:21;;;;;;;;;;;4.20;99.90;4.90;97697.00;;;;343897;28;91982;-88
2021/11/28 00:02:35;;;;;;;;;;;4.20;99.90;4.90;97712.00;;;;343179;28;95858;-88
2021/11/28 00:02:47;;;;;;;;;;;4.20;99.90;4.90;97708.00;;;;342826;28;91939;-88
2021/11/28 00:03:01;;;;;;;;;;;4.20;99.90;4.80;97708.00;;;;344455;28;94313;-88
2021/11/28 00:03:15;;;;;;;;;;;4.20;99.90;4.80;97709.00;;;;342724;28;91446;-88
2021/11/28 00:03:27;;;;;;;;;;;4.20;99.90;4.80;97706.00;;;;345989;28;93113;-88
2021/11/28 00:03:39;;;;;;;;;;;4.30;99.90;5.00;97703.00;;;;344107;28;92081;-88
2021/11/28 00:03:53;;;;;;;;;;;4.30;99.90;5.00;97707.00;;;;344486;28;95932;-88
2021/11/28 00:04:05;;;;;;;;;;;4.30;99.90;4.90;97700.00;;;;345747;28;91935;-88
2021/11/28 00:04:17;;;;;;;;;;;4.30;99.90;4.80;97711.00;;;;343270;28;91980;-88
2021/11/28 00:04:28;;;;;;;;;;;4.20;99.90;4.80;97700.00;;;;345633;28;91922;-88
2021/11/28 00:04:40;;;;;;;;;;;4.30;99.90;4.70;97694.00;;;;347267;28;96128;-88
2021/11/28 00:04:53;;;;;;;;;;;4.30;99.90;4.70;97709.00;;;;344290;28;91218;-88
2021/11/28 00:05:05;;;;;;;;;;;4.30;99.90;4.70;97700.00;;;;345933;28;95493;-88
2021/11/28 00:05:19;;;;;;;;;;;4.30;99.90;4.80;97700.00;;;;344306;28;91393;-88
2021/11/28 00:05:34;;;;;;;;;;;4.30;99.90;4.80;97710.00;;;;345894;28;94753;-88
2021/11/28 00:05:55;;;;;;;;;;;4.30;99.90;4.70;97701.00;;;;345407;28;92087;-88
2021/11/28 00:06:15;;;;;;;;;;;4.30;99.90;4.70;97699.00;;;;342401;28;95941;-88
2021/11/28 00:06:28;;;;;;;;;;;4.30;99.90;4.80;97701.00;;;;344270;28;91955;-88
2021/11/28 00:06:50;;;;;;;;;;;4.30;99.90;4.80;97696.00;;;;346935;28;95468;-88
2021/11/28 00:07:09;;;;;;;;;;;4.30;99.90;4.80;97702.00;;;;345524;28;92102;-89
2021/11/28 00:07:45;;;;;;;;;;;4.30;99.90;4.80;97702.00;;;;345898;28;95708;-88
2021/11/28 00:08:14;;;;;;;;;;;4.30;99.90;5.10;97703.00;;;;345403;28;92389;-88
2021/11/28 00:10:29;;;;;;;;;;;4.30;99.90;4.70;97711.00;;;;344104;28;92059;-88
2021/11/28 00:12:09;;;;;;;;;;;4.30;99.90;4.70;97701.00;;;;342946;28;92098;-88
2021/11/28 00:13:02;;;;;;;;;;;4.30;99.90;4.90;97709.00;;;;345986;28;95105;-88
2021/11/28 00:13:25;;;;;;;;;;;4.30;99.90;4.70;97711.00;;;;342700;28;92172;-88
2021/11/28 00:14:05;;;;;;;;;;;4.20;99.90;4.60;97717.00;;;;345820;28;94338;-88
2021/11/28 00:14:16;;;;;;;;;;;4.20;99.90;4.70;97710.00;;;;344268;28;91963;-88
2021/11/28 00:14:28;;;;;;;;;;;4.20;99.90;4.60;97712.00;;;;347106;28;95784;-88
2021/11/28 00:14:40;;;;;;;;;;;4.20;99.90;4.60;97711.00;;;;345200;28;91199;-88
2021/11/28 00:14:56;;;;;;;;;;;4.20;99.90;4.50;97715.00;;;;341810;28;95656;-88
2021/11/28 00:15:17;;;;;;;;;;;4.20;99.90;4.50;97701.00;;;;344776;28;92127;-88
2021/11/28 00:15:29;;;;;;;;;;;4.20;99.90;4.60;97715.00;;;;344296;28;96621;-88
2021/11/28 00:15:40;;;;;;;;;;;4.20;99.90;4.60;97714.00;;;;345411;28;90470;-88
2021/11/28 00:15:53;;;;;;;;;;;4.10;99.90;4.60;97710.00;;;;347306;28;95039;-87
2021/11/28 00:16:05;;;;;;;;;;;4.20;99.90;4.60;97702.00;;;;342937;28;92019;-88
2021/11/28 00:16:18;;;;;;;;;;;4.10;99.90;4.60;97708.00;;;;344271;28;96314;-88
2021/11/28 00:16:30;;;;;;;;;;;4.20;99.90;4.60;97705.00;;;;342955;28;92029;-88
2021/11/28 00:16:43;;;;;;;;;;;4.10;99.90;4.60;97708.00;;;;344484;28;95687;-88
2021/11/28 00:16:55;;;;;;;;;;;4.10;99.90;4.60;97708.00;;;;344078;28;91198;-88
2021/11/28 00:17:07;;;;;;;;;;;4.10;99.90;4.70;97708.00;;;;343114;28;94560;-88
2021/11/28 00:17:19;;;;;;;;;;;4.10;99.90;4.80;97705.00;;;;342975;28;91134;-88
2021/11/28 00:17:31;;;;;;;;;;;4.20;99.90;4.90;97704.00;;;;343112;28;95528;-88
2021/11/28 00:17:42;;;;;;;;;;;4.20;99.90;4.90;97692.00;;;;342300;28;91388;-88
2021/11/28 00:17:54;;;;;;;;;;;4.20;99.90;4.80;97693.00;;;;344371;28;94139;-88
2021/11/28 00:18:07;;;;;;;;;;;4.20;99.90;4.80;97705.00;;;;342520;28;92150;-88
2021/11/28 00:18:20;;;;;;;;;;;4.20;99.90;4.80;97699.00;;;;345643;28;96006;-88
2021/11/28 00:18:31;;;;;;;;;;;4.20;99.90;4.80;97706.00;;;;344285;28;91189;-88
2021/11/28 00:18:43;;;;;;;;;;;4.20;99.90;4.80;97704.00;;;;344530;28;94628;-88
2021/11/28 00:18:55;;;;;;;;;;;4.20;99.90;4.70;97706.00;;;;344306;28;91153;-88
2021/11/28 00:19:07;;;;;;;;;;;4.20;99.90;4.70;97702.00;;;;342025;28;94620;-88
2021/11/28 00:19:19;;;;;;;;;;;4.20;99.90;4.70;97705.00;;;;345417;28;91259;-88
2021/11/28 00:19:31;;;;;;;;;;;4.20;99.90;4.70;97701.00;;;;345941;28;94626;-88
2021/11/28 00:19:42;;;;;;;;;;;4.20;99.90;4.60;97703.00;;;;344031;28;91318;-88
2021/11/28 00:19:54;;;;;;;;;;;4.20;99.90;4.60;97709.00;;;;343161;28;93930;-88
2021/11/28 00:20:08;;;;;;;;;;;4.20;99.90;4.60;97698.00;;;;345390;28;91181;-88
2021/11/28 00:20:20;;;;;;;;;;;4.20;99.90;4.60;97701.00;;;;344434;28;95654;-88
2021/11/28 00:20:32;;;;;;;;;;;4.20;99.90;4.60;97705.00;;;;344263;28;92107;-88
2021/11/28 00:20:43;;;;;;;;;;;4.20;99.90;4.70;97699.00;;;;344514;28;95150;-88
2021/11/28 00:20:55;;;;;;;;;;;4.20;99.90;4.70;97700.00;;;;344370;28;91851;-88
2021/11/28 00:21:07;;;;;;;;;;;4.20;99.90;4.70;97703.00;;;;343557;28;96318;-88
2021/11/28 00:21:19;;;;;;;;;;;4.10;99.90;4.70;97696.00;;;;344471;28;91966;-88
2021/11/28 00:21:31;;;;;;;;;;;4.20;99.90;4.70;97700.00;;;;344563;28;96081;-88
2021/11/28 00:21:43;;;;;;;;;;;4.20;99.90;4.70;97695.00;;;;344024;28;91322;-88
2021/11/28 00:21:55;;;;;;;;;;;4.20;99.90;4.70;97704.00;;;;345990;28;93768;-88
2021/11/28 00:22:07;;;;;;;;;;;4.20;99.90;4.70;97704.00;;;;345813;28;92085;-88
2021/11/28 00:22:20;;;;;;;;;;;4.20;99.90;4.70;97707.00;;;;343096;28;95765;-88
2021/11/28 00:22:32;;;;;;;;;;;4.20;99.90;4.70;97701.00;;;;344254;28;91272;-88
2021/11/28 00:22:44;;;;;;;;;;;4.10;99.90;4.60;97711.00;;;;345932;28;93430;-88
2021/11/28 00:22:56;;;;;;;;;;;4.10;99.90;4.60;97706.00;;;;345601;28;91946;-88
2021/11/28 00:23:08;;;;;;;;;;;4.20;99.90;4.60;97704.00;;;;347215;28;93074;-88
2021/11/28 00:23:19;;;;;;;;;;;4.10;99.90;4.60;97700.00;;;;344347;28;91169;-88
2021/11/28 00:23:31;;;;;;;;;;;4.10;99.90;4.50;97708.00;;;;347163;28;93096;-88
2021/11/28 00:23:43;;;;;;;;;;;4.10;99.90;4.50;97699.00;;;;342896;28;91327;-88
2021/11/28 00:23:55;;;;;;;;;;;4.10;99.90;4.50;97703.00;;;;342963;28;95040;-88
2021/11/28 00:24:07;;;;;;;;;;;4.10;99.90;4.50;97703.00;;;;342488;28;92354;-88
2021/11/28 00:24:18;;;;;;;;;;;4.10;99.90;4.50;97712.00;;;;343424;28;95844;-88
2021/11/28 00:24:30;;;;;;;;;;;4.10;99.90;4.50;97702.00;;;;344318;28;91169;-88
2021/11/28 00:24:42;;;;;;;;;;;4.10;99.90;4.50;97704.00;;;;345741;28;95807;-88
2021/11/28 00:24:54;;;;;;;;;;;4.10;99.90;4.50;97706.00;;;;344229;28;91173;-88
2021/11/28 00:25:10;;;;;;;;;;;4.10;99.90;4.40;97698.00;;;;343063;28;94841;-88
2021/11/28 00:25:22;;;;;;;;;;;4.00;99.90;4.50;97709.00;;;;344350;28;91101;-88
2021/11/28 00:25:34;;;;;;;;;;;4.00;99.90;4.50;97700.00;;;;344484;28;93007;-88
2021/11/28 00:25:46;;;;;;;;;;;4.00;99.90;4.40;97704.00;;;;344368;28;90361;-88
2021/11/28 00:26:00;;;;;;;;;;;4.00;99.90;4.40;97707.00;;;;344390;28;94033;-88
2021/11/28 00:26:13;;;;;;;;;;;4.00;99.90;4.40;97710.00;;;;344152;28;92117;-88
2021/11/28 00:26:25;;;;;;;;;;;4.00;99.90;4.40;97710.00;;;;343119;28;95642;-88
2021/11/28 00:26:36;;;;;;;;;;;4.00;99.90;4.40;97708.00;;;;344088;28;92178;-88
2021/11/28 00:26:49;;;;;;;;;;;4.00;99.90;4.40;97702.00;;;;343144;28;94757;-88
2021/11/28 00:27:01;;;;;;;;;;;4.00;99.90;4.40;97707.00;;;;342484;28;92450;-88
2021/11/28 00:27:13;;;;;;;;;;;4.00;99.90;4.40;97705.00;;;;341547;28;94781;-88
2021/11/28 00:27:24;;;;;;;;;;;4.00;99.90;4.50;97700.00;;;;344068;28;91993;-88
2021/11/28 00:27:36;;;;;;;;;;;4.00;99.90;4.50;97704.00;;;;344987;28;95865;-88
2021/11/28 00:27:49;;;;;;;;;;;4.00;99.90;4.50;97703.00;;;;345651;28;91275;-88
2021/11/28 00:28:00;;;;;;;;;;;4.00;99.90;4.50;97707.00;;;;344525;28;94006;-88
2021/11/28 00:28:13;;;;;;;;;;;4.00;99.90;4.50;97702.00;;;;346874;28;92054;-88
2021/11/28 00:28:25;;;;;;;;;;;4.00;99.90;4.50;97705.00;;;;344453;28;94676;-88
2021/11/28 00:28:37;;;;;;;;;;;4.00;99.90;4.50;97698.00;;;;344254;28;92037;-88
2021/11/28 00:28:49;;;;;;;;;;;4.00;99.90;4.50;97711.00;;;;344513;28;95562;-88
2021/11/28 00:29:01;;;;;;;;;;;4.00;99.90;4.50;97699.00;;;;344166;28;91960;-88
2021/11/28 00:29:13;;;;;;;;;;;4.00;99.90;4.50;97716.00;;;;344348;28;95089;-88
2021/11/28 00:29:25;;;;;;;;;;;4.00;99.90;4.50;97707.00;;;;345669;28;91895;-88
2021/11/28 00:29:37;;;;;;;;;;;4.00;99.90;4.50;97697.00;;;;348604;27;95302;-88
2021/11/28 00:29:48;;;;;;;;;;;4.00;99.90;4.50;97707.00;;;;345704;28;90344;-88
2021/11/28 00:30:01;;;;;;;;;;;4.00;99.90;4.50;97706.00;;;;344438;28;94962;-88
2021/11/28 00:30:16;;;;;;;;;;;4.00;99.90;4.60;97713.00;;;;345085;28;92143;-88
2021/11/28 00:30:28;;;;;;;;;;;4.00;99.90;4.60;97706.00;;;;345878;28;92981;-88
2021/11/28 00:30:40;;;;;;;;;;;4.00;99.90;4.60;97714.00;;;;343918;28;92193;-88
2021/11/28 00:30:52;;;;;;;;;;;4.00;99.90;4.70;97712.00;;;;344329;28;93102;-88
2021/11/28 00:31:04;;;;;;;;;;;4.00;99.90;4.80;97710.00;;;;344008;28;91930;-88
2021/11/28 00:31:16;;;;;;;;;;;4.00;99.90;4.70;97715.00;;;;345887;28;95181;-88
2021/11/28 00:31:27;;;;;;;;;;;4.00;99.90;4.70;97709.00;;;;347012;28;91933;-88
2021/11/28 00:31:40;;;;;;;;;;;4.00;99.90;4.70;97713.00;;;;345610;28;93852;-87
2021/11/28 00:31:51;;;;;;;;;;;4.10;99.90;4.70;97706.00;;;;345661;28;90416;-88
2021/11/28 00:32:03;;;;;;;;;;;4.10;99.90;4.70;97714.00;;;;345877;28;94117;-88
2021/11/28 00:32:15;;;;;;;;;;;4.00;99.90;4.70;97711.00;;;;345341;28;92145;-88
2021/11/28 00:32:27;;;;;;;;;;;4.10;99.90;4.70;97711.00;;;;341787;28;95260;-88
2021/11/28 00:32:39;;;;;;;;;;;4.10;99.90;4.70;97701.00;;;;344199;28;92056;-88
2021/11/28 00:32:51;;;;;;;;;;;4.10;99.90;4.60;97711.00;;;;345883;28;95408;-88
2021/11/28 00:33:03;;;;;;;;;;;4.10;99.90;4.60;97715.00;;;;345354;28;91904;-88
2021/11/28 00:33:15;;;;;;;;;;;4.00;99.90;4.70;97713.00;;;;347019;28;95911;-88
2021/11/28 00:33:27;;;;;;;;;;;4.00;99.90;4.80;97708.00;;;;341393;28;91985;-88
2021/11/28 00:33:39;;;;;;;;;;;4.10;99.90;4.80;97708.00;;;;343421;28;95624;-88
2021/11/28 00:33:50;;;;;;;;;;;4.10;99.90;4.80;97705.00;;;;343994;28;91307;-88
2021/11/28 00:34:02;;;;;;;;;;;4.10;99.90;4.90;97705.00;;;;341619;28;93693;-88
2021/11/28 00:34:14;;;;;;;;;;;4.10;99.90;4.80;97709.00;;;;345587;28;91997;-88
2021/11/28 00:34:26;;;;;;;;;;;4.10;99.90;4.80;97713.00;;;;345547;28;95736;-88
2021/11/28 00:34:37;;;;;;;;;;;4.10;99.90;4.90;97708.00;;;;343987;28;91480;-88
2021/11/28 00:34:50;;;;;;;;;;;4.10;99.90;4.90;97712.00;;;;343218;28;93357;-88
2021/11/28 00:35:02;;;;;;;;;;;4.20;99.90;4.90;97711.00;;;;344182;28;92088;-88
2021/11/28 00:35:14;;;;;;;;;;;4.20;99.90;4.80;97711.00;;;;347325;28;93493;-88
2021/11/28 00:35:26;;;;;;;;;;;4.20;99.90;4.90;97708.00;;;;345448;28;91090;-88
2021/11/28 00:35:38;;;;;;;;;;;4.20;99.90;4.90;97704.00;;;;344432;28;95532;-88
2021/11/28 00:35:50;;;;;;;;;;;4.20;99.90;5.00;97712.00;;;;348235;27;91343;-88
2021/11/28 00:36:02;;;;;;;;;;;4.20;99.90;4.90;97709.00;;;;344364;28;94068;-88
2021/11/28 00:36:14;;;;;;;;;;;4.20;99.90;4.90;97712.00;;;;346693;28;92141;-88
2021/11/28 00:36:26;;;;;;;;;;;4.20;99.90;4.80;97708.00;;;;347088;28;95734;-88
2021/11/28 00:36:38;;;;;;;;;;;4.20;99.90;4.70;97704.00;;;;344658;28;92093;-88
2021/11/28 00:36:50;;;;;;;;;;;4.20;99.90;4.70;97710.00;;;;344541;28;94170;-88
2021/11/28 00:37:02;;;;;;;;;;;4.20;99.90;4.60;97705.00;;;;342893;28;91920;-88
2021/11/28 00:37:13;;;;;;;;;;;4.10;99.90;4.60;97712.00;;;;342852;28;97082;-88
2021/11/28 00:37:25;;;;;;;;;;;4.20;99.90;4.60;97710.00;;;;343931;28;91231;-88
2021/11/28 00:37:37;;;;;;;;;;;4.10;99.90;4.70;97713.00;;;;345807;28;95602;-89
2021/11/28 00:37:49;;;;;;;;;;;4.20;99.90;4.60;97711.00;;;;345670;28;91270;-88
2021/11/28 00:38:00;;;;;;;;;;;4.20;99.90;4.60;97708.00;;;;345845;28;95143;-88
2021/11/28 00:38:12;;;;;;;;;;;4.20;99.90;4.60;97709.00;;;;345630;28;91125;-88
2021/11/28 00:38:24;;;;;;;;;;;4.10;99.90;4.60;97707.00;;;;345945;28;92414;-88
2021/11/28 00:38:36;;;;;;;;;;;4.10;99.90;4.60;97711.00;;;;342914;28;92020;-88
2021/11/28 00:38:48;;;;;;;;;;;4.10;99.90;4.70;97705.00;;;;344553;28;95864;-88
2021/11/28 00:39:00;;;;;;;;;;;4.10;99.90;4.70;97706.00;;;;345466;28;92499;-88
2021/11/28 00:39:11;;;;;;;;;;;4.20;99.90;4.70;97712.00;;;;345232;28;95892;-88
2021/11/28 00:39:23;;;;;;;;;;;4.10;99.90;4.70;97708.00;;;;344083;28;92070;-88
2021/11/28 00:39:35;;;;;;;;;;;4.10;99.90;4.60;97707.00;;;;344389;28;94715;-88
2021/11/28 00:39:47;;;;;;;;;;;4.20;99.90;4.70;97708.00;;;;345626;28;91357;-88
2021/11/28 00:39:59;;;;;;;;;;;4.10;99.90;4.60;97709.00;;;;342992;28;94412;-88
2021/11/28 00:40:12;;;;;;;;;;;4.10;99.90;4.60;97704.00;;;;344130;28;92119;-88
2021/11/28 00:40:24;;;;;;;;;;;4.10;99.90;4.70;97700.00;;;;345767;28;95857;-88
2021/11/28 00:40:35;;;;;;;;;;;4.10;99.90;4.70;97703.00;;;;344243;28;91208;-87
2021/11/28 00:40:47;;;;;;;;;;;4.10;99.90;4.70;97704.00;;;;341779;28;94469;-88
2021/11/28 00:40:59;;;;;;;;;;;4.10;99.90;4.70;97706.00;;;;343896;28;92020;-88
2021/11/28 00:41:11;;;;;;;;;;;4.10;99.90;4.60;97710.00;;;;347283;28;95597;-88
2021/11/28 00:41:22;;;;;;;;;;;4.10;99.90;4.60;97702.00;;;;345425;28;91986;-88
2021/11/28 00:41:34;;;;;;;;;;;4.10;99.90;4.60;97706.00;;;;347245;28;94338;-88
2021/11/28 00:41:56;;;;;;;;;;;4.10;99.90;4.60;97714.00;;;;347009;28;91219;-88
2021/11/28 00:42:14;;;;;;;;;;;4.10;99.90;4.60;97716.00;;;;343624;28;95618;-88
2021/11/28 00:42:26;;;;;;;;;;;4.10;99.90;4.70;97705.00;;;;343961;28;91224;-88
2021/11/28 00:42:37;;;;;;;;;;;4.10;99.90;4.60;97703.00;;;;346585;28;94252;-88
2021/11/28 00:42:49;;;;;;;;;;;4.10;99.90;4.60;97708.00;;;;345594;28;92166;-88
2021/11/28 00:43:01;;;;;;;;;;;4.10;99.90;4.60;97699.00;;;;343069;28;96151;-88
2021/11/28 00:43:13;;;;;;;;;;;4.10;99.90;4.60;97702.00;;;;345283;28;91998;-88
2021/11/28 00:43:25;;;;;;;;;;;4.10;99.90;4.70;97702.00;;;;345628;28;95597;-88
2021/11/28 00:43:37;;;;;;;;;;;4.10;99.90;4.70;97703.00;;;;342641;28;92128;-87
2021/11/28 00:43:49;;;;;;;;;;;4.10;99.90;4.70;97712.00;;;;345655;28;94726;-88
2021/11/28 00:44:00;;;;;;;;;;;4.10;99.90;4.70;97705.00;;;;344125;28;91156;-88
2021/11/28 00:44:12;;;;;;;;;;;4.10;99.90;4.70;97705.00;;;;345976;28;92107;-88
2021/11/28 00:44:24;;;;;;;;;;;4.10;99.90;4.70;97712.00;;;;345137;28;92119;-88
2021/11/28 00:44:36;;;;;;;;;;;4.10;99.90;4.60;97693.00;;;;344241;28;95812;-88
2021/11/28 00:44:48;;;;;;;;;;;4.10;99.90;4.60;97699.00;;;;346683;28;92075;-88
2021/11/28 00:45:00;;;;;;;;;;;4.10;99.90;4.70;97708.00;;;;344467;28;92633;-88
2021/11/28 00:45:11;;;;;;;;;;;4.10;99.90;4.60;97708.00;;;;343772;28;92073;-88
2021/11/28 00:45:23;;;;;;;;;;;4.10;99.90;4.70;97702.00;;;;346062;28;93054;-87
2021/11/28 00:45:35;;;;;;;;;;;4.00;99.90;4.80;97704.00;;;;345467;28;91235;-87
2021/11/28 00:45:47;;;;;;;;;;;4.10;99.90;4.80;97705.00;;;;344552;28;92113;-88
2021/11/28 00:45:59;;;;;;;;;;;4.10;99.90;4.90;97709.00;;;;342806;28;90507;-88
2021/11/28 00:46:12;;;;;;;;;;;4.10;99.90;4.90;97718.00;;;;344347;28;92706;-88
2021/11/28 00:46:24;;;;;;;;;;;4.10;99.90;4.80;97706.00;;;;344160;28;92060;-88
2021/11/28 00:46:36;;;;;;;;;;;4.10;99.90;4.70;97703.00;;;;343003;28;96101;-89
2021/11/28 00:46:48;;;;;;;;;;;4.10;99.90;4.70;97701.00;;;;344276;28;91905;-88
2021/11/28 00:46:59;;;;;;;;;;;4.10;99.90;4.70;97705.00;;;;346903;28;94605;-88
2021/11/28 00:47:11;;;;;;;;;;;4.10;99.90;4.70;97709.00;;;;344399;28;90992;-88
2021/11/28 00:47:24;;;;;;;;;;;4.10;99.90;4.70;97688.00;;;;345939;28;92085;-88
2021/11/28 00:47:36;;;;;;;;;;;4.10;99.90;4.60;97694.00;;;;342710;28;91292;-88
2021/11/28 00:47:48;;;;;;;;;;;4.10;99.90;4.60;97703.00;;;;341888;28;90897;-88
2021/11/28 00:48:00;;;;;;;;;;;4.10;99.90;4.50;97706.00;;;;348221;27;91131;-88
2021/11/28 00:48:12;;;;;;;;;;;4.10;99.90;4.50;97700.00;;;;344785;28;92149;-88
2021/11/28 00:48:28;;;;;;;;;;;4.10;99.90;4.60;97700.00;;;;343648;28;92092;-88
2021/11/28 00:48:43;;;;;;;;;;;4.10;99.90;4.50;97703.00;;;;345501;28;95890;-88
2021/11/28 00:48:56;;;;;;;;;;;4.10;99.90;4.60;97699.00;;;;345380;28;92664;-88
2021/11/28 00:49:14;;;;;;;;;;;4.00;99.90;4.60;97709.00;;;;347135;27;95767;-88
2021/11/28 00:49:27;;;;;;;;;;;4.00;99.90;4.60;97706.00;;;;343955;28;91228;-88
2021/11/28 00:49:49;;;;;;;;;;;4.00;99.90;4.50;97705.00;;;;344345;28;93146;-88
2021/11/28 00:50:05;;;;;;;;;;;4.00;99.90;4.50;97706.00;;;;344006;28;92064;-88
2021/11/28 00:50:25;;;;;;;;;;;4.00;99.90;4.50;97710.00;;;;342890;28;95850;-87
2021/11/28 00:50:48;;;;;;;;;;;4.00;99.90;4.40;97706.00;;;;344295;28;91277;-88
2021/11/28 00:51:36;;;;;;;;;;;4.00;99.90;4.50;97724.00;;;;342558;28;92053;-88
2021/11/28 00:52:00;;;;;;;;;;;4.00;99.90;4.50;97712.00;;;;345605;28;91924;-88
2021/11/28 00:52:12;;;;;;;;;;;4.00;99.90;4.50;97703.00;;;;345878;28;92107;-88
2021/11/28 00:52:24;;;;;;;;;;;4.00;99.90;4.40;97711.00;;;;345693;28;91782;-87
2021/11/28 00:52:36;;;;;;;;;;;4.00;99.90;4.40;97713.00;;;;343042;28;93034;-88
2021/11/28 00:52:48;;;;;;;;;;;3.90;99.90;4.50;97715.00;;;;345475;28;92195;-88
2021/11/28 00:52:59;;;;;;;;;;;3.90;99.90;4.40;97708.00;;;;344439;28;94113;-88
2021/11/28 00:53:13;;;;;;;;;;;3.90;99.90;4.50;97717.00;;;;344258;28;91115;-88
2021/11/28 00:53:24;;;;;;;;;;;3.90;99.90;4.50;97718.00;;;;344317;28;93636;-88
2021/11/28 00:53:36;;;;;;;;;;;4.00;99.90;4.50;97715.00;;;;346907;28;91987;-87
2021/11/28 00:53:50;;;;;;;;;;;4.00;99.90;4.40;97705.00;;;;343007;28;95979;-88
2021/11/28 00:54:02;;;;;;;;;;;3.90;99.90;4.30;97710.00;;;;342631;28;92004;-88
2021/11/28 00:54:14;;;;;;;;;;;3.90;99.90;4.30;97713.00;;;;345817;28;92711;-87
2021/11/28 00:54:27;;;;;;;;;;;3.90;99.90;4.40;97703.00;;;;344194;28;91204;-88
2021/11/28 00:54:41;;;;;;;;;;;3.90;99.90;4.40;97713.00;;;;343634;28;95951;-87
2021/11/28 00:54:53;;;;;;;;;;;3.90;99.90;4.50;97708.00;;;;344258;28;92035;-87
2021/11/28 00:55:06;;;;;;;;;;;3.90;99.90;4.50;97707.00;;;;343089;28;93021;-88
2021/11/28 00:55:18;;;;;;;;;;;3.90;99.90;4.50;97711.00;;;;343015;28;91134;-88
2021/11/28 00:55:30;;;;;;;;;;;3.90;99.90;4.40;97709.00;;;;344253;28;94991;-88
2021/11/28 00:55:41;;;;;;;;;;;3.90;99.90;4.40;97705.00;;;;345285;28;91297;-88
2021/11/28 00:55:53;;;;;;;;;;;3.90;99.90;4.40;97711.00;;;;345896;28;93347;-88
2021/11/28 00:56:05;;;;;;;;;;;3.90;99.90;4.40;97705.00;;;;344010;28;92100;-88
2021/11/28 00:56:18;;;;;;;;;;;3.90;99.90;4.40;97704.00;;;;344287;28;96057;-88
2021/11/28 00:56:30;;;;;;;;;;;3.90;99.90;4.40;97709.00;;;;345661;28;91853;-88
2021/11/28 00:56:42;;;;;;;;;;;3.90;99.90;4.40;97705.00;;;;347174;28;93999;-88
2021/11/28 00:56:54;;;;;;;;;;;3.90;99.90;4.40;97703.00;;;;342818;28;92078;-88
2021/11/28 00:57:06;;;;;;;;;;;3.90;99.90;4.30;97711.00;;;;344581;28;93055;-88
2021/11/28 00:57:18;;;;;;;;;;;3.90;99.90;4.30;97708.00;;;;345850;28;91215;-88
2021/11/28 00:57:29;;;;;;;;;;;3.80;99.90;4.30;97704.00;;;;343087;28;95487;-88
2021/11/28 00:57:41;;;;;;;;;;;3.80;99.90;4.30;97709.00;;;;343986;28;92215;-87
2021/11/28 00:57:53;;;;;;;;;;;3.80;99.90;4.30;97709.00;;;;345802;28;94768;-88
2021/11/28 00:58:05;;;;;;;;;;;3.80;99.90;4.30;97705.00;;;;342936;28;91184;-88
2021/11/28 00:58:16;;;;;;;;;;;3.80;99.90;4.30;97713.00;;;;344086;28;95076;-88
2021/11/28 00:58:28;;;;;;;;;;;3.80;99.90;4.30;97702.00;;;;343918;28;92048;-88
2021/11/28 00:58:40;;;;;;;;;;;3.80;99.90;4.30;97706.00;;;;344503;28;93596;-87
2021/11/28 00:58:52;;;;;;;;;;;3.80;99.90;4.20;97712.00;;;;343985;28;91130;-88
2021/11/28 00:59:03;;;;;;;;;;;3.80;99.90;4.30;97703.00;;;;346996;27;94539;-88
2021/11/28 00:59:15;;;;;;;;;;;3.80;99.90;4.30;97706.00;;;;345752;28;91159;-88
2021/11/28 00:59:28;;;;;;;;;;;3.80;99.90;4.30;97707.00;;;;345870;28;94267;-88
2021/11/28 00:59:40;;;;;;;;;;;3.80;99.90;4.30;97708.00;;;;344189;28;92128;-87
2021/11/28 00:59:52;;;;;;;;;;;3.80;99.90;4.30;97706.00;;;;345798;28;96059;-87
2021/11/28 01:00:05;;;;;;;;;;;3.80;99.90;4.40;97710.00;;;;343916;28;91879;-88
2021/11/28 01:00:17;;;;;;;;;;;3.80;99.90;4.50;97709.00;;;;347179;28;90876;-88
2021/11/28 01:00:29;;;;;;;;;;;3.80;99.90;4.50;97707.00;;;;346382;28;91978;-88
2021/11/28 01:00:43;;;;;;;;;;;3.80;99.90;4.40;97701.00;;;;343044;28;92844;-88
2021/11/28 01:00:54;;;;;;;;;;;3.80;99.90;4.40;97709.00;;;;344243;28;91910;-88
2021/11/28 01:01:07;;;;;;;;;;;3.80;99.90;4.40;97703.00;;;;344029;28;93733;-88
2021/11/28 01:01:19;;;;;;;;;;;3.80;99.90;4.40;97704.00;;;;345682;28;91196;-88
2021/11/28 01:01:31;;;;;;;;;;;3.80;99.90;4.30;97709.00;;;;344585;28;93219;-88
2021/11/28 01:01:43;;;;;;;;;;;3.80;99.90;4.30;97714.00;;;;346703;28;92174;-88
2021/11/28 01:01:55;;;;;;;;;;;3.80;99.90;4.30;97706.00;;;;345843;28;94907;-88
2021/11/28 01:02:07;;;;;;;;;;;3.80;99.90;4.30;97708.00;;;;344046;28;91224;-88
2021/11/28 01:02:19;;;;;;;;;;;3.80;99.90;4.30;97712.00;;;;345586;28;95237;-87
2021/11/28 01:02:32;;;;;;;;;;;3.80;99.90;4.30;97710.00;;;;345427;28;92059;-88
2021/11/28 01:02:44;;;;;;;;;;;3.80;99.90;4.40;97706.00;;;;345673;28;96374;-88
2021/11/28 01:02:56;;;;;;;;;;;3.80;99.90;4.40;97708.00;;;;345665;28;91930;-88
2021/11/28 01:03:08;;;;;;;;;;;3.80;99.90;4.40;97709.00;;;;346339;28;96534;-88
2021/11/28 01:03:20;;;;;;;;;;;3.80;99.90;4.40;97711.00;;;;347558;27;94088;-88
2021/11/28 01:03:32;;;;;;;;;;;3.80;99.90;4.40;97702.00;;;;347005;28;95249;-88
2021/11/28 01:03:44;;;;;;;;;;;3.80;99.90;4.40;97713.00;;;;344033;28;92203;-88
2021/11/28 01:03:56;;;;;;;;;;;3.80;99.90;4.40;97709.00;;;;344488;28;93723;-88
2021/11/28 01:04:08;;;;;;;;;;;3.80;99.90;4.30;97704.00;;;;344976;28;92176;-88
2021/11/28 01:04:20;;;;;;;;;;;3.80;99.90;4.40;97713.00;;;;343173;28;93734;-87
2021/11/28 01:04:32;;;;;;;;;;;3.80;99.90;4.40;97706.00;;;;344213;28;92026;-88
2021/11/28 01:04:44;;;;;;;;;;;3.80;99.90;4.30;97707.00;;;;345649;28;95939;-88
2021/11/28 01:04:56;;;;;;;;;;;3.80;99.90;4.30;97713.00;;;;344276;28;91173;-87
2021/11/28 01:05:08;;;;;;;;;;;3.80;99.90;4.30;97722.00;;;;343057;28;93893;-88
2021/11/28 01:05:20;;;;;;;;;;;3.80;99.90;4.30;97717.00;;;;341452;28;90443;-88
2021/11/28 01:05:32;;;;;;;;;;;3.80;99.90;4.30;97720.00;;;;345862;28;92750;-87
2021/11/28 01:05:44;;;;;;;;;;;3.80;99.90;4.30;97716.00;;;;345445;28;91868;-88
2021/11/28 01:06:00;;;;;;;;;;;3.80;99.90;4.30;97715.00;;;;344001;28;93952;-88
2021/11/28 01:06:13;;;;;;;;;;;3.80;99.90;4.40;97721.00;;;;345126;28;92150;-88
2021/11/28 01:06:25;;;;;;;;;;;3.80;99.90;4.40;97715.00;;;;344237;28;95410;-88
2021/11/28 01:06:38;;;;;;;;;;;3.80;99.90;4.40;97713.00;;;;344107;28;92071;-89
2021/11/28 01:06:49;;;;;;;;;;;3.80;99.90;4.40;97709.00;;;;344490;28;92770;-88
2021/11/28 01:07:01;;;;;;;;;;;3.80;99.90;4.40;97704.00;;;;342835;28;92072;-88
2021/11/28 01:07:13;;;;;;;;;;;3.80;99.90;4.40;97710.00;;;;347144;28;93260;-88
2021/11/28 01:07:29;;;;;;;;;;;3.80;99.90;4.40;97712.00;;;;346844;28;90505;-88
2021/11/28 01:07:41;;;;;;;;;;;3.80;99.90;4.40;97708.00;;;;347220;28;92738;-88
2021/11/28 01:07:53;;;;;;;;;;;3.80;99.90;4.40;97712.00;;;;344290;28;92099;-88
2021/11/28 01:08:04;;;;;;;;;;;3.90;99.90;4.40;97709.00;;;;345805;28;93767;-88
2021/11/28 01:08:16;;;;;;;;;;;3.80;99.90;4.40;97715.00;;;;348261;27;91757;-88
2021/11/28 01:08:29;;;;;;;;;;;3.80;99.90;4.40;97708.00;;;;348606;27;94154;-88
2021/11/28 01:08:41;;;;;;;;;;;3.80;99.90;4.40;97708.00;;;;346825;28;92130;-88
2021/11/28 01:08:53;;;;;;;;;;;3.80;99.90;4.40;97713.00;;;;345727;28;94079;-88
2021/11/28 01:09:07;;;;;;;;;;;3.80;99.90;4.40;97701.00;;;;346115;28;92104;-88
2021/11/28 01:09:22;;;;;;;;;;;3.80;99.90;4.40;97713.00;;;;347761;27;90984;-88
2021/11/28 01:09:33;;;;;;;;;;;3.80;99.90;4.40;97718.00;;;;346983;27;91297;-88
2021/11/28 01:09:45;;;;;;;;;;;3.80;99.90;4.40;97716.00;;;;345706;28;94270;-88
2021/11/28 01:09:58;;;;;;;;;;;3.90;99.90;4.40;97715.00;;;;347133;28;91944;-88